createdAt,value
2022-12-31T00:04:55.163Z,11.74
2022-12-31T00:10:16.999Z,11.69
2022-12-31T00:15:40.404Z,11.77
2022-12-31T00:21:06.780Z,11.74
2022-12-31T00:26:30.460Z,11.84
2022-12-31T00:31:52.184Z,11.82
2022-12-31T00:37:13.895Z,11.91
2022-12-31T00:42:35.695Z,12.02
2022-12-31T00:47:57.421Z,12.11
2022-12-31T00:53:19.201Z,12.00
2022-12-31T00:58:41.550Z,12.05
2022-12-31T01:04:09.380Z,12.05
2022-12-31T01:09:31.111Z,12.04
2022-12-31T01:14:52.870Z,12.01
2022-12-31T01:20:14.678Z,12.14
2022-12-31T01:25:41.942Z,12.14
2022-12-31T01:31:09.079Z,12.19
2022-12-31T01:36:33.220Z,12.21
2022-12-31T01:41:54.932Z,12.23
2022-12-31T01:47:22.110Z,12.24
2022-12-31T01:52:48.053Z,12.22
2022-12-31T01:58:15.755Z,12.28
2022-12-31T02:03:38.642Z,12.23
2022-12-31T02:09:00.750Z,12.23
2022-12-31T02:14:26.833Z,12.25
2022-12-31T02:20:24.169Z,12.31
2022-12-31T02:26:07.689Z,12.23
2022-12-31T02:32:02.777Z,12.23
2022-12-31T02:37:28.827Z,12.25
2022-12-31T02:42:55.363Z,12.22
2022-12-31T02:48:26.677Z,12.25
2022-12-31T02:54:04.317Z,12.29
2022-12-31T02:59:52.029Z,12.25
2022-12-31T03:05:15.549Z,12.32
2022-12-31T03:10:37.320Z,12.29
2022-12-31T03:15:59.040Z,12.36
2022-12-31T03:21:39.624Z,12.48
2022-12-31T03:27:01.282Z,12.44
2022-12-31T03:32:23.080Z,12.46
2022-12-31T03:37:45.149Z,12.46
2022-12-31T03:43:07.296Z,12.53
2022-12-31T03:48:29.030Z,12.64
2022-12-31T03:53:50.751Z,12.68
2022-12-31T03:59:12.548Z,12.75
2022-12-31T04:04:34.269Z,12.84
2022-12-31T04:09:56.080Z,12.89
2022-12-31T04:15:20.064Z,12.88
2022-12-31T04:20:41.814Z,13.03
2022-12-31T04:26:03.537Z,13.05
2022-12-31T04:31:25.346Z,13.06
2022-12-31T04:36:47.136Z,13.08
2022-12-31T04:42:08.832Z,13.19
2022-12-31T04:47:30.563Z,13.17
2022-12-31T04:52:52.727Z,13.12
2022-12-31T04:58:14.420Z,13.26
2022-12-31T05:03:36.680Z,13.32
2022-12-31T05:08:58.350Z,13.31
2022-12-31T05:14:20.308Z,13.37
2022-12-31T05:19:41.984Z,13.27
2022-12-31T05:25:03.972Z,13.21
2022-12-31T05:30:25.993Z,13.32
2022-12-31T05:35:47.875Z,13.30
2022-12-31T05:41:10.767Z,13.30
2022-12-31T05:46:32.532Z,13.31
2022-12-31T05:51:54.337Z,13.34
2022-12-31T05:57:16.057Z,13.26
2022-12-31T06:02:37.910Z,13.27
2022-12-31T06:07:59.628Z,13.24
2022-12-31T06:13:21.336Z,13.27
2022-12-31T06:18:43.047Z,13.24
2022-12-31T06:24:05.107Z,13.24
2022-12-31T06:29:26.797Z,13.23
2022-12-31T06:34:48.577Z,13.28
2022-12-31T06:40:10.939Z,13.26
2022-12-31T06:45:32.683Z,13.26
2022-12-31T06:50:54.495Z,13.26
2022-12-31T06:56:26.499Z,13.20
2022-12-31T07:01:58.677Z,13.16
2022-12-31T07:07:49.483Z,13.13
2022-12-31T07:13:35.157Z,13.16
2022-12-31T07:19:17.225Z,13.12
2022-12-31T07:24:39.243Z,13.14
2022-12-31T07:30:06.353Z,13.18
2022-12-31T07:35:35.844Z,13.18
2022-12-31T07:41:12.309Z,13.23
2022-12-31T07:46:58.864Z,13.30
2022-12-31T07:52:21.477Z,13.33
2022-12-31T07:58:02.314Z,13.34
2022-12-31T08:03:51.067Z,13.39
2022-12-31T08:09:49.097Z,13.40
2022-12-31T08:15:15.942Z,13.43
2022-12-31T08:21:09.467Z,13.44
2022-12-31T08:26:52.818Z,13.51
2022-12-31T08:32:26.428Z,13.67
2022-12-31T08:37:56.607Z,13.65
2022-12-31T08:43:26.094Z,13.65
2022-12-31T08:48:48.392Z,13.66
2022-12-31T08:54:12.163Z,13.68
2022-12-31T08:59:57.801Z,13.70
2022-12-31T09:05:35.019Z,13.73
2022-12-31T09:11:23.628Z,13.79
2022-12-31T09:16:50.324Z,13.88
2022-12-31T09:22:12.336Z,13.92
2022-12-31T09:27:49.845Z,13.92
2022-12-31T09:33:16.610Z,13.95
2022-12-31T09:38:57.096Z,14.02
2022-12-31T09:44:35.811Z,14.05
2022-12-31T09:50:22.213Z,14.13
2022-12-31T09:56:27.775Z,14.17
2022-12-31T10:02:43.509Z,14.32
2022-12-31T10:08:16.508Z,14.43
2022-12-31T10:14:15.998Z,14.59
2022-12-31T10:20:00.734Z,14.56
2022-12-31T10:25:38.597Z,14.55
2022-12-31T10:31:15.703Z,14.58
2022-12-31T10:37:03.030Z,14.57
2022-12-31T10:42:46.689Z,14.65
2022-12-31T10:48:45.192Z,14.72
2022-12-31T10:54:38.566Z,14.74
2022-12-31T11:00:03.639Z,14.78
2022-12-31T11:05:34.311Z,14.89
2022-12-31T11:11:32.917Z,14.87
2022-12-31T11:17:08.379Z,14.92
2022-12-31T11:22:39.044Z,15.28
2022-12-31T11:28:06.577Z,15.26
2022-12-31T11:33:53.007Z,15.25
2022-12-31T11:39:33.320Z,15.24
2022-12-31T11:45:17.947Z,15.31
2022-12-31T11:50:48.744Z,15.33
2022-12-31T11:56:19.088Z,15.40
2022-12-31T12:01:58.859Z,15.37
2022-12-31T12:07:23.024Z,15.40
2022-12-31T12:12:44.741Z,15.52
2022-12-31T12:18:10.035Z,15.56
2022-12-31T12:23:32.857Z,15.53
2022-12-31T12:28:54.590Z,15.53
2022-12-31T12:34:24.276Z,15.60
2022-12-31T12:40:02.066Z,15.64
2022-12-31T12:45:36.294Z,15.57
2022-12-31T12:50:59.436Z,15.55
2022-12-31T12:56:38.680Z,15.63
2022-12-31T13:02:14.581Z,15.63
2022-12-31T13:07:58.069Z,15.72
2022-12-31T13:13:24.243Z,15.86
2022-12-31T13:18:54.969Z,15.80
2022-12-31T13:24:44.271Z,15.83
2022-12-31T13:30:23.282Z,15.83
2022-12-31T13:35:53.463Z,15.75
2022-12-31T13:41:21.532Z,15.77
2022-12-31T13:46:51.921Z,15.82
2022-12-31T13:52:36.000Z,15.89
2022-12-31T13:58:05.491Z,15.78
2022-12-31T14:03:47.708Z,15.74
2022-12-31T14:09:15.503Z,15.72
2022-12-31T14:14:42.123Z,15.64
2022-12-31T14:20:16.175Z,15.60
2022-12-31T14:25:47.247Z,15.57
2022-12-31T14:31:23.560Z,15.51
2022-12-31T14:37:09.514Z,15.50
2022-12-31T14:42:46.172Z,15.59
2022-12-31T14:48:34.418Z,15.59
2022-12-31T14:53:57.982Z,15.57
2022-12-31T14:59:28.216Z,15.54
2022-12-31T15:04:49.928Z,15.49
2022-12-31T15:10:45.026Z,15.39
2022-12-31T15:16:18.581Z,15.28
2022-12-31T15:22:03.574Z,15.24
2022-12-31T15:27:35.509Z,15.18
2022-12-31T15:33:00.674Z,15.13
2022-12-31T15:38:35.200Z,15.06
2022-12-31T15:44:01.979Z,15.02
2022-12-31T15:49:25.498Z,14.98
2022-12-31T15:54:54.665Z,14.95
2022-12-31T16:00:18.724Z,14.94
2022-12-31T16:05:41.069Z,14.89
2022-12-31T16:11:08.489Z,14.87
2022-12-31T16:16:33.296Z,14.81
2022-12-31T16:21:56.833Z,14.76
2022-12-31T16:27:18.580Z,14.68
2022-12-31T16:32:40.540Z,14.63
2022-12-31T16:38:07.984Z,14.59
2022-12-31T16:43:30.923Z,14.50
2022-12-31T16:48:56.031Z,14.46
2022-12-31T16:54:27.851Z,14.46
2022-12-31T17:00:06.244Z,14.42
2022-12-31T17:05:28.676Z,14.38
2022-12-31T17:10:50.785Z,14.33
2022-12-31T17:16:17.648Z,14.29
2022-12-31T17:21:48.345Z,14.22
2022-12-31T17:27:10.517Z,14.12
2022-12-31T17:32:38.798Z,14.06
2022-12-31T17:38:22.462Z,14.01
2022-12-31T17:43:44.379Z,13.92
2022-12-31T17:49:12.188Z,13.86
2022-12-31T17:54:34.037Z,13.84
2022-12-31T17:59:56.328Z,13.85
2022-12-31T18:05:20.881Z,13.92
2022-12-31T18:10:44.187Z,13.97
2022-12-31T18:16:06.353Z,14.01
2022-12-31T18:21:32.569Z,14.10
2022-12-31T18:26:55.246Z,14.05
2022-12-31T18:32:25.075Z,14.07
2022-12-31T18:37:46.883Z,14.06
2022-12-31T18:43:15.332Z,14.03
2022-12-31T18:48:37.181Z,14.02
2022-12-31T18:54:02.913Z,13.97
2022-12-31T18:59:24.826Z,14.01
2022-12-31T19:04:47.997Z,13.94
2022-12-31T19:10:13.284Z,14.00
2022-12-31T19:15:45.586Z,13.99
2022-12-31T19:21:14.900Z,13.91
2022-12-31T19:26:43.062Z,13.87
2022-12-31T19:32:05.602Z,13.85
2022-12-31T19:37:27.402Z,13.83
2022-12-31T19:42:50.834Z,13.82
2022-12-31T19:48:14.941Z,13.75
2022-12-31T19:53:36.826Z,13.66
2022-12-31T19:59:06.199Z,13.69
2022-12-31T20:04:27.936Z,13.69
2022-12-31T20:09:50.178Z,13.66
2022-12-31T20:15:11.918Z,13.66
2022-12-31T20:20:33.671Z,13.65
2022-12-31T20:26:01.978Z,13.60
2022-12-31T20:31:25.205Z,13.60
2022-12-31T20:36:47.128Z,13.54
2022-12-31T20:42:08.912Z,13.45
2022-12-31T20:47:30.898Z,13.49
2022-12-31T20:52:52.591Z,13.44
2022-12-31T20:58:14.396Z,13.36
2022-12-31T21:04:04.255Z,13.40
2022-12-31T21:09:19.800Z,13.37
2022-12-31T21:14:44.894Z,13.33
2022-12-31T21:20:07.682Z,13.24
2022-12-31T21:25:29.471Z,13.20
2022-12-31T21:30:57.500Z,13.12
2022-12-31T21:36:19.610Z,13.08
2022-12-31T21:41:53.840Z,13.06
2022-12-31T21:47:37.286Z,13.02
2022-12-31T21:53:01.444Z,13.00
2022-12-31T21:58:26.519Z,12.98
2022-12-31T22:03:48.919Z,12.93
2022-12-31T22:09:10.658Z,12.97
2022-12-31T22:14:32.392Z,12.98
2022-12-31T22:20:25.168Z,12.98
2022-12-31T22:25:37.745Z,13.02
2022-12-31T22:30:59.676Z,12.99
2022-12-31T22:36:23.396Z,12.95
2022-12-31T22:41:46.514Z,12.93
2022-12-31T22:47:08.849Z,12.91
2022-12-31T22:52:31.415Z,12.93
2022-12-31T22:57:53.167Z,12.94
2022-12-31T23:03:15.792Z,12.97
2022-12-31T23:08:37.768Z,12.88
2022-12-31T23:14:18.346Z,12.89
2022-12-31T23:19:58.760Z,12.89
2022-12-31T23:25:20.483Z,12.81
2022-12-31T23:30:43.046Z,12.76
2022-12-31T23:36:06.520Z,12.81
2022-12-31T23:41:28.223Z,12.96
2022-12-31T23:46:49.961Z,12.99
2022-12-31T23:52:12.681Z,13.05
2022-12-31T23:57:34.377Z,13.18
